Time;durP1;ratioP1;P1;durP2;ratioP2;P2;SDS_P1;SDS_P2;PMS_P1;PMS_P2;Temp;Humidity;BMP_temperature;BMP_pressure;BME280_temperature;BME280_humidity;BME280_pressure;Samples;Min_cycle;Max_cycle;Signal;HPM_P1;HPM_P2
2021/03/07 00:01:37;;;;;;;10.88;7.60;;;3.70;99.90;;;;;;4147452;28;20042;-73
2021/03/07 00:03:37;;;;;;;15.80;8.65;;;3.70;99.90;;;;;;4152856;28;20210;-73
2021/03/07 00:05:38;;;;;;;13.80;8.27;;;3.70;99.90;;;;;;4158600;28;20103;-73
2021/03/07 00:07:39;;;;;;;13.77;8.07;;;3.70;99.90;;;;;;4158438;28;20072;-72
2021/03/07 00:09:39;;;;;;;14.70;8.48;;;3.70;99.90;;;;;;4158676;28;20033;-73
2021/03/07 00:11:48;;;;;;;12.25;7.65;;;3.70;99.90;;;;;;4148881;28;20037;-73
2021/03/07 00:13:49;;;;;;;12.98;7.43;;;3.70;99.90;;;;;;4151314;28;20131;-73
2021/03/07 00:15:49;;;;;;;11.60;7.72;;;3.70;99.90;;;;;;4154251;28;20067;-73
2021/03/07 00:17:51;;;;;;;10.48;7.10;;;3.70;99.90;;;;;;4154323;28;20025;-73
2021/03/07 00:19:53;;;;;;;13.48;8.15;;;3.60;99.90;;;;;;4156504;28;20087;-72
2021/03/07 00:21:53;;;;;;;11.70;7.40;;;3.60;99.90;;;;;;4155016;28;20162;-72
2021/03/07 00:23:54;;;;;;;11.43;7.45;;;3.70;99.90;;;;;;4157884;28;20103;-72
2021/03/07 00:25:55;;;;;;;12.75;7.45;;;3.60;99.90;;;;;;4145552;28;20175;-72
2021/03/07 00:27:56;;;;;;;9.93;6.88;;;3.60;99.90;;;;;;4158132;28;20156;-72
2021/03/07 00:29:57;;;;;;;11.00;7.00;;;3.60;99.90;;;;;;4144712;28;20061;-73
2021/03/07 00:31:58;;;;;;;9.43;6.32;;;3.70;99.90;;;;;;4153113;28;20033;-73
2021/03/07 00:33:59;;;;;;;14.75;7.72;;;3.60;99.90;;;;;;4156544;28;20049;-73
2021/03/07 00:36:00;;;;;;;12.38;6.88;;;3.60;99.90;;;;;;4134909;28;20466;-72
2021/03/07 00:38:00;;;;;;;11.55;6.85;;;3.60;99.90;;;;;;4157550;28;20118;-72
2021/03/07 00:40:02;;;;;;;10.48;6.75;;;3.50;99.90;;;;;;4150768;28;20061;-73
2021/03/07 00:42:03;;;;;;;12.93;6.45;;;3.50;99.90;;;;;;4157402;28;20137;-72
2021/03/07 00:44:06;;;;;;;12.10;6.65;;;3.50;99.90;;;;;;4141608;28;20046;-73
2021/03/07 00:46:07;;;;;;;10.82;6.32;;;3.50;99.90;;;;;;4164682;28;20044;-73
2021/03/07 00:48:10;;;;;;;10.35;6.10;;;3.50;99.90;;;;;;4157282;28;20559;-73
2021/03/07 00:50:21;;;;;;;9.38;6.00;;;3.60;99.90;;;;;;4157772;28;20033;-73
2021/03/07 00:52:22;;;;;;;10.37;6.70;;;3.60;99.90;;;;;;4152677;28;20236;-73
2021/03/07 00:54:23;;;;;;;9.68;6.35;;;3.60;99.90;;;;;;4153467;28;20045;-72
2021/03/07 00:56:24;;;;;;;10.13;6.05;;;3.50;99.90;;;;;;4161640;28;20143;-72
2021/03/07 00:58:25;;;;;;;11.43;6.53;;;3.50;99.90;;;;;;4158357;28;20541;-74
2021/03/07 01:00:28;;;;;;;11.77;7.40;;;3.50;99.90;;;;;;4156147;28;20045;-73
2021/03/07 01:02:30;;;;;;;15.70;9.15;;;3.50;99.90;;;;;;4157370;28;20041;-73
2021/03/07 01:04:30;;;;;;;19.50;9.85;;;3.50;99.90;;;;;;4161593;28;20493;-73
2021/03/07 01:06:32;;;;;;;18.67;10.65;;;3.50;99.90;;;;;;4161411;28;20034;-72
2021/03/07 01:08:32;;;;;;;18.60;11.48;;;3.50;99.90;;;;;;4156980;28;20026;-72
2021/03/07 01:10:40;;;;;;;19.50;12.63;;;3.40;99.90;;;;;;4152664;28;20041;-72
2021/03/07 01:12:41;;;;;;;21.15;12.95;;;3.50;99.90;;;;;;4158442;28;20041;-72
2021/03/07 01:14:41;;;;;;;23.02;13.27;;;3.50;99.90;;;;;;4152890;28;20138;-73
2021/03/07 01:16:44;;;;;;;22.45;13.73;;;3.50;99.90;;;;;;4160383;28;20026;-72
2021/03/07 01:18:45;;;;;;;20.27;13.13;;;3.50;99.90;;;;;;4158509;28;20034;-73
2021/03/07 01:20:46;;;;;;;21.70;14.20;;;3.40;99.90;;;;;;4160787;28;20766;-72
2021/03/07 01:22:47;;;;;;;22.40;13.13;;;3.40;99.90;;;;;;4151035;28;20208;-72
2021/03/07 01:24:48;;;;;;;21.08;12.63;;;3.40;99.90;;;;;;4159475;28;20420;-72
2021/03/07 01:26:48;;;;;;;18.95;11.82;;;3.40;99.90;;;;;;4160716;28;20048;-72
2021/03/07 01:28:49;;;;;;;20.50;12.77;;;3.40;99.90;;;;;;4161213;28;20469;-73
2021/03/07 01:30:50;;;;;;;22.75;12.73;;;3.30;99.90;;;;;;4161136;28;20429;-73
2021/03/07 01:32:50;;;;;;;22.00;12.70;;;3.30;99.90;;;;;;4159298;28;21545;-73
2021/03/07 01:34:51;;;;;;;18.98;11.30;;;3.30;99.90;;;;;;4159936;28;20132;-72
2021/03/07 01:36:52;;;;;;;21.50;11.10;;;3.30;99.90;;;;;;4152076;28;20037;-74
2021/03/07 01:38:52;;;;;;;16.25;10.45;;;3.30;99.90;;;;;;4157075;28;20038;-72
2021/03/07 01:40:53;;;;;;;17.13;9.68;;;3.20;99.90;;;;;;4153818;28;20041;-72
2021/03/07 01:42:56;;;;;;;16.48;9.45;;;3.20;99.90;;;;;;4152201;28;20037;-72
2021/03/07 01:44:56;;;;;;;16.63;9.38;;;3.20;99.90;;;;;;4159197;28;20428;-72
2021/03/07 01:46:57;;;;;;;14.07;8.57;;;3.20;99.90;;;;;;4161302;28;20033;-72
2021/03/07 01:48:57;;;;;;;12.27;8.00;;;3.20;99.90;;;;;;4160736;28;20120;-72
2021/03/07 01:50:58;;;;;;;12.40;7.85;;;3.20;99.90;;;;;;4160282;28;20048;-73
2021/03/07 01:52:59;;;;;;;14.10;7.63;;;3.20;99.90;;;;;;4155859;28;20033;-72
2021/03/07 01:55:00;;;;;;;11.45;7.60;;;3.20;99.90;;;;;;4142252;28;20053;-72
2021/03/07 01:57:02;;;;;;;12.57;7.95;;;3.20;99.90;;;;;;4160438;28;20029;-73
2021/03/07 01:59:03;;;;;;;14.03;7.93;;;3.20;99.90;;;;;;4158098;28;20030;-73
2021/03/07 02:01:06;;;;;;;12.95;7.82;;;3.20;99.90;;;;;;4160205;28;20256;-73
2021/03/07 02:03:06;;;;;;;11.50;7.45;;;3.20;99.90;;;;;;4154733;28;20026;-73
2021/03/07 02:05:07;;;;;;;13.15;7.40;;;3.20;99.90;;;;;;4160548;28;20500;-72
2021/03/07 02:07:08;;;;;;;13.32;7.10;;;3.20;99.90;;;;;;4159285;28;20067;-72
2021/03/07 02:09:09;;;;;;;11.20;6.75;;;3.20;99.90;;;;;;4142069;28;20026;-73
2021/03/07 02:11:10;;;;;;;10.90;7.13;;;3.20;99.90;;;;;;4158499;28;20378;-73
2021/03/07 02:13:18;;;;;;;12.15;6.88;;;3.20;99.90;;;;;;4157736;28;20067;-73
2021/03/07 02:15:19;;;;;;;10.90;6.50;;;3.20;99.90;;;;;;4156836;28;20482;-72
2021/03/07 02:17:21;;;;;;;9.23;6.53;;;3.20;99.90;;;;;;4160218;28;20051;-72
2021/03/07 02:19:28;;;;;;;9.40;6.38;;;3.20;99.90;;;;;;4142802;28;20034;-73
2021/03/07 02:21:34;;;;;;;11.82;6.40;;;3.10;99.90;;;;;;4153870;28;20437;-73
2021/03/07 02:23:46;;;;;;;10.07;6.47;;;3.20;99.90;;;;;;4156864;28;20030;-72
2021/03/07 02:25:47;;;;;;;10.18;6.35;;;3.10;99.90;;;;;;4152671;28;20034;-72
2021/03/07 02:27:48;;;;;;;12.13;6.45;;;3.20;99.90;;;;;;4154096;28;20030;-73
2021/03/07 02:29:48;;;;;;;9.63;6.00;;;3.10;99.90;;;;;;4158580;28;20184;-72
2021/03/07 02:31:53;;;;;;;11.00;6.35;;;3.10;99.90;;;;;;4154357;28;20045;-72
2021/03/07 02:34:10;;;;;;;10.52;6.15;;;3.10;99.90;;;;;;4146934;28;20049;-72
2021/03/07 02:36:20;;;;;;;10.63;6.70;;;3.20;99.90;;;;;;4158925;28;20040;-72
2021/03/07 02:38:23;;;;;;;9.15;5.85;;;3.10;99.90;;;;;;4160225;28;20436;-73
2021/03/07 02:40:26;;;;;;;11.88;5.95;;;3.20;99.90;;;;;;4160357;28;20037;-72
2021/03/07 02:42:30;;;;;;;11.27;5.97;;;3.10;99.90;;;;;;4160528;28;20029;-72
2021/03/07 02:44:35;;;;;;;9.35;5.32;;;3.10;99.90;;;;;;4151646;28;20042;-72
2021/03/07 02:46:37;;;;;;;9.52;5.90;;;3.10;99.90;;;;;;4148382;28;20227;-73
2021/03/07 02:48:39;;;;;;;11.50;6.13;;;3.10;99.90;;;;;;4156585;28;20559;-73
2021/03/07 02:50:43;;;;;;;11.00;6.85;;;3.10;99.90;;;;;;4159100;28;20388;-72
2021/03/07 02:52:52;;;;;;;9.80;5.45;;;3.10;99.90;;;;;;4151512;28;20117;-73
2021/03/07 02:54:54;;;;;;;9.48;5.97;;;3.10;99.90;;;;;;4159630;28;20049;-72
2021/03/07 02:56:56;;;;;;;9.57;5.88;;;3.10;99.90;;;;;;4144787;28;20037;-72
2021/03/07 02:59:01;;;;;;;9.52;5.53;;;3.10;99.90;;;;;;4154676;28;20034;-73
2021/03/07 03:01:05;;;;;;;8.88;5.45;;;3.10;99.90;;;;;;4151813;28;20038;-73
2021/03/07 03:03:11;;;;;;;9.57;5.80;;;3.10;99.90;;;;;;4140930;28;20035;-73
2021/03/07 03:05:12;;;;;;;11.45;6.20;;;3.10;99.90;;;;;;4158588;28;20064;-73
2021/03/07 03:07:13;;;;;;;11.82;6.25;;;3.10;99.90;;;;;;4154985;28;20242;-74
2021/03/07 03:09:16;;;;;;;10.32;6.00;;;3.10;99.90;;;;;;4156443;28;20124;-73
2021/03/07 03:11:18;;;;;;;;;;;3.10;99.90;;;;;;4159332;28;20486;-73
2021/03/07 03:13:20;;;;;;;10.27;5.88;;;3.10;99.90;;;;;;4174384;28;19922;-73
2021/03/07 03:15:21;;;;;;;;;;;3.00;99.90;;;;;;4160077;28;20029;-73
2021/03/07 03:17:25;;;;;;;11.10;5.90;;;3.00;99.90;;;;;;4158026;28;19917;-72
2021/03/07 03:19:28;;;;;;;11.43;6.35;;;3.00;99.90;;;;;;4158521;28;21736;-72
2021/03/07 03:21:28;;;;;;;10.10;6.03;;;2.90;99.90;;;;;;4155948;28;20034;-73
2021/03/07 03:23:29;;;;;;;9.30;5.75;;;2.90;99.90;;;;;;4147646;28;20041;-72
2021/03/07 03:25:31;;;;;;;10.52;5.63;;;2.90;99.90;;;;;;4166054;28;20052;-73
2021/03/07 03:27:35;;;;;;;10.48;6.00;;;2.90;99.90;;;;;;4159510;28;20040;-73
2021/03/07 03:29:38;;;;;;;10.07;6.03;;;2.90;99.90;;;;;;4158612;28;20037;-72
2021/03/07 03:31:39;;;;;;;;;;;2.90;99.90;;;;;;4157440;28;20037;-73
2021/03/07 03:33:40;;;;;;;13.77;6.00;;;2.90;99.90;;;;;;4158978;28;20387;-73
2021/03/07 03:35:40;;;;;;;10.85;5.43;;;2.90;99.90;;;;;;4155226;28;20493;-72
2021/03/07 03:37:43;;;;;;;8.38;5.47;;;2.80;99.90;;;;;;4157386;28;20041;-72
2021/03/07 03:39:46;;;;;;;10.07;5.78;;;2.80;99.90;;;;;;4159002;28;20022;-72
2021/03/07 03:41:51;;;;;;;9.93;5.35;;;2.80;99.90;;;;;;4156457;28;20064;-72
2021/03/07 03:43:55;;;;;;;8.75;5.55;;;2.80;99.90;;;;;;4157769;28;20040;-73
2021/03/07 03:46:00;;;;;;;9.70;5.80;;;2.80;99.90;;;;;;4158136;28;20041;-73
2021/03/07 03:48:04;;;;;;;9.70;5.63;;;2.80;99.90;;;;;;4158799;28;20053;-72
2021/03/07 03:50:06;;;;;;;10.35;5.88;;;2.80;99.90;;;;;;4156518;28;20124;-73
2021/03/07 03:52:09;;;;;;;8.90;5.28;;;2.80;99.90;;;;;;4157550;28;20037;-73
2021/03/07 03:54:11;;;;;;;10.02;5.63;;;2.80;99.90;;;;;;4155887;28;20389;-73
2021/03/07 03:56:15;;;;;;;8.90;6.00;;;2.80;99.90;;;;;;4151568;28;20025;-73
2021/03/07 03:58:22;;;;;;;9.00;5.75;;;2.80;99.90;;;;;;4156917;28;20044;-73
2021/03/07 04:00:25;;;;;;;9.00;5.82;;;2.70;99.90;;;;;;4158985;28;20517;-73
2021/03/07 04:02:29;;;;;;;9.30;5.55;;;2.80;99.90;;;;;;4137563;28;20489;-73
2021/03/07 04:04:30;;;;;;;13.18;6.28;;;2.70;99.90;;;;;;4139986;28;20069;-72
2021/03/07 04:06:31;;;;;;;7.97;5.43;;;2.70;99.90;;;;;;4156130;28;20068;-73
2021/03/07 04:08:32;;;;;;;10.85;6.20;;;2.80;99.90;;;;;;4158838;28;20034;-73
2021/03/07 04:10:33;;;;;;;10.65;6.43;;;2.70;99.90;;;;;;4156392;28;20422;-73
2021/03/07 04:12:38;;;;;;;10.38;6.10;;;2.80;99.90;;;;;;4158191;28;20049;-73
2021/03/07 04:14:39;;;;;;;10.00;6.05;;;2.70;99.90;;;;;;4156608;28;20033;-73
2021/03/07 04:16:40;;;;;;;9.48;5.97;;;2.70;99.90;;;;;;4157870;28;20109;-73
2021/03/07 04:18:41;;;;;;;10.60;6.22;;;2.70;99.90;;;;;;4157471;28;20034;-73
2021/03/07 04:20:43;;;;;;;11.00;5.80;;;2.70;99.90;;;;;;4156671;28;20033;-74
2021/03/07 04:22:48;;;;;;;9.38;5.72;;;2.70;99.90;;;;;;4155285;28;20076;-73
2021/03/07 04:24:49;;;;;;;8.57;5.65;;;2.70;99.90;;;;;;4157478;28;20025;-73
2021/03/07 04:26:50;;;;;;;8.18;5.60;;;2.70;99.90;;;;;;4151975;28;20037;-73
2021/03/07 04:28:51;;;;;;;10.68;6.28;;;2.80;99.90;;;;;;4155751;28;20112;-73
2021/03/07 04:30:52;;;;;;;11.55;6.72;;;2.70;99.90;;;;;;4139569;28;20394;-73
2021/03/07 04:32:55;;;;;;;11.35;6.72;;;2.70;99.90;;;;;;4155830;28;20543;-73
2021/03/07 04:34:55;;;;;;;10.05;5.97;;;2.70;99.90;;;;;;4157323;28;20029;-74
2021/03/07 04:36:56;;;;;;;11.68;6.63;;;2.70;99.90;;;;;;4157808;28;20184;-73
2021/03/07 04:38:57;;;;;;;11.13;6.35;;;2.70;99.90;;;;;;4153589;28;20041;-73
2021/03/07 04:40:58;;;;;;;10.65;5.55;;;2.70;99.90;;;;;;4157485;28;20041;-73
2021/03/07 04:42:59;;;;;;;11.45;6.18;;;2.70;99.90;;;;;;4157971;28;20570;-73
2021/03/07 04:45:00;;;;;;;12.05;6.47;;;2.70;99.90;;;;;;4158310;28;20112;-73
2021/03/07 04:47:01;;;;;;;11.15;6.07;;;2.60;99.90;;;;;;4155857;28;20490;-73
2021/03/07 04:49:02;;;;;;;11.20;6.28;;;2.60;99.90;;;;;;4139786;28;20045;-73
2021/03/07 04:51:03;;;;;;;13.95;6.13;;;2.60;99.90;;;;;;4157624;28;20377;-73
2021/03/07 04:53:03;;;;;;;8.25;5.95;;;2.60;99.90;;;;;;4157319;28;20057;-73
2021/03/07 04:55:05;;;;;;;11.35;6.43;;;2.60;99.90;;;;;;4156644;28;20038;-74
2021/03/07 04:57:06;;;;;;;11.30;6.35;;;2.60;99.90;;;;;;4156451;28;20087;-73
2021/03/07 04:59:09;;;;;;;10.95;6.32;;;2.60;99.90;;;;;;4157400;28;20029;-73
2021/03/07 05:01:10;;;;;;;11.07;6.10;;;2.60;99.90;;;;;;4139757;28;20030;-73
2021/03/07 05:03:10;;;;;;;9.88;5.68;;;2.60;99.90;;;;;;4157741;28;20045;-73
2021/03/07 05:05:11;;;;;;;11.50;6.18;;;2.60;99.90;;;;;;4157554;28;20091;-73
2021/03/07 05:07:12;;;;;;;9.95;5.57;;;2.60;99.90;;;;;;4157470;28;20037;-73
2021/03/07 05:09:15;;;;;;;10.82;6.43;;;2.60;99.90;;;;;;4157138;28;20026;-73
2021/03/07 05:11:16;;;;;;;10.18;6.30;;;2.60;99.90;;;;;;4136645;28;20079;-74
2021/03/07 05:13:17;;;;;;;8.25;6.30;;;2.50;99.90;;;;;;4154434;28;20040;-73
2021/03/07 05:15:17;;;;;;;9.38;5.72;;;2.50;99.90;;;;;;4152452;28;20030;-73
2021/03/07 05:17:18;;;;;;;11.18;6.30;;;2.50;99.90;;;;;;4157503;28;20033;-73
2021/03/07 05:19:19;;;;;;;12.13;6.03;;;2.50;99.90;;;;;;4150736;28;20027;-73
2021/03/07 05:21:19;;;;;;;10.73;6.05;;;2.50;99.90;;;;;;4151562;28;20033;-73
2021/03/07 05:23:20;;;;;;;12.70;5.88;;;2.50;99.90;;;;;;4151980;28;20120;-73
2021/03/07 05:25:21;;;;;;;9.82;6.45;;;2.50;99.90;;;;;;4157169;28;20026;-73
2021/03/07 05:27:21;;;;;;;8.48;6.13;;;2.50;99.90;;;;;;4149650;28;20309;-73
2021/03/07 05:29:22;;;;;;;9.02;6.05;;;2.50;99.90;;;;;;4158288;28;20068;-73
2021/03/07 05:31:23;;;;;;;12.10;6.00;;;2.50;99.90;;;;;;4157370;28;20033;-73
2021/03/07 05:33:23;;;;;;;11.40;6.25;;;2.50;99.90;;;;;;4157714;28;20065;-73
2021/03/07 05:35:24;;;;;;;8.95;6.30;;;2.50;99.90;;;;;;4152243;28;20166;-73
2021/03/07 05:37:25;;;;;;;10.15;6.78;;;2.50;99.90;;;;;;4145762;28;20026;-73
2021/03/07 05:39:26;;;;;;;11.68;6.00;;;2.40;99.90;;;;;;4158283;28;20539;-74
2021/03/07 05:41:26;;;;;;;10.00;6.30;;;2.40;99.90;;;;;;4139438;28;20045;-73
2021/03/07 05:43:28;;;;;;;9.13;5.63;;;2.40;99.90;;;;;;4156891;28;20042;-73
2021/03/07 05:45:32;;;;;;;10.45;6.18;;;2.40;99.90;;;;;;4158132;28;20029;-73
2021/03/07 05:47:32;;;;;;;12.35;6.70;;;2.40;99.90;;;;;;4155988;28;20029;-73
2021/03/07 05:49:33;;;;;;;10.63;6.47;;;2.40;99.90;;;;;;4158518;28;20033;-73
2021/03/07 05:51:35;;;;;;;10.10;6.25;;;2.40;99.90;;;;;;4140063;28;20042;-73
2021/03/07 05:53:35;;;;;;;10.30;5.88;;;2.30;99.90;;;;;;4158672;28;20136;-73
2021/03/07 05:55:36;;;;;;;10.90;6.40;;;2.30;99.90;;;;;;4160464;28;20056;-73
2021/03/07 05:57:38;;;;;;;10.32;6.47;;;2.30;99.90;;;;;;4160764;28;20295;-73
2021/03/07 05:59:38;;;;;;;9.35;6.32;;;2.20;99.90;;;;;;4159812;28;20045;-73
2021/03/07 06:01:39;;;;;;;12.85;6.70;;;2.20;99.90;;;;;;4156433;28;20068;-73
2021/03/07 06:03:39;;;;;;;14.85;7.13;;;2.20;99.90;;;;;;4158155;28;20113;-73
2021/03/07 06:05:41;;;;;;;15.27;7.45;;;2.20;99.90;;;;;;4155321;28;20041;-73
2021/03/07 06:07:43;;;;;;;15.13;6.88;;;2.20;99.90;;;;;;4142401;28;20124;-73
2021/03/07 06:09:44;;;;;;;10.43;6.57;;;2.20;99.90;;;;;;4154980;28;20492;-73
2021/03/07 06:11:49;;;;;;;12.68;7.03;;;2.20;99.90;;;;;;4155828;28;20112;-73
2021/03/07 06:13:50;;;;;;;12.23;6.32;;;2.20;99.90;;;;;;4158392;28;20037;-73
2021/03/07 06:16:08;;;;;;;12.88;6.65;;;2.20;99.90;;;;;;4156763;28;20026;-74
2021/03/07 06:18:22;;;;;;;12.82;7.35;;;2.20;99.90;;;;;;4156563;28;20092;-73
2021/03/07 06:20:25;;;;;;;13.20;6.38;;;2.20;99.90;;;;;;4158383;28;20053;-73
2021/03/07 06:22:29;;;;;;;9.02;6.38;;;2.10;99.90;;;;;;4130293;28;20134;-74
2021/03/07 06:24:38;;;;;;;12.65;6.97;;;2.10;99.90;;;;;;4156989;28;20549;-73
2021/03/07 06:26:38;;;;;;;11.70;6.88;;;2.10;99.90;;;;;;4157215;28;20040;-73
2021/03/07 06:28:39;;;;;;;10.93;6.60;;;2.10;99.90;;;;;;4156554;28;20061;-73
2021/03/07 06:30:40;;;;;;;10.20;6.35;;;2.20;99.90;;;;;;4149100;28;20045;-73
2021/03/07 06:32:53;;;;;;;13.30;6.90;;;2.20;99.90;;;;;;4151243;28;20045;-74
2021/03/07 06:34:54;;;;;;;10.32;6.45;;;2.20;99.90;;;;;;4153649;28;20399;-73
2021/03/07 06:37:15;;;;;;;14.07;7.05;;;2.20;99.90;;;;;;4159124;28;20076;-74
2021/03/07 06:39:27;;;;;;;11.90;6.55;;;2.10;99.90;;;;;;4143665;28;20041;-73
2021/03/07 06:41:32;;;;;;;14.15;8.20;;;2.10;99.90;;;;;;4157574;28;20033;-73
2021/03/07 06:43:35;;;;;;;18.60;9.18;;;2.00;99.90;;;;;;4155066;28;20567;-73
2021/03/07 06:45:41;;;;;;;13.93;7.63;;;2.00;99.90;;;;;;4158865;28;20040;-73
2021/03/07 06:47:57;;;;;;;14.75;8.85;;;2.00;99.90;;;;;;4157024;28;20677;-73
2021/03/07 06:50:14;;;;;;;15.35;8.75;;;2.00;99.90;;;;;;4158100;28;20025;-73
2021/03/07 06:52:17;;;;;;;16.85;8.70;;;2.00;99.90;;;;;;4157319;28;20044;-73
2021/03/07 06:54:21;;;;;;;13.32;8.75;;;2.00;99.90;;;;;;4157541;28;20112;-73
2021/03/07 06:56:40;;;;;;;15.45;9.30;;;2.00;99.90;;;;;;4156317;28;20030;-73
2021/03/07 06:58:41;;;;;;;17.50;9.90;;;2.00;99.90;;;;;;4140266;28;20026;-75
2021/03/07 07:00:42;;;;;;;14.40;8.50;;;2.00;99.90;;;;;;4157521;28;20527;-74
2021/03/07 07:03:08;;;;;;;14.70;8.65;;;2.00;99.90;;;;;;4156933;28;20040;-73
2021/03/07 07:05:09;;;;;;;15.18;9.43;;;2.00;99.90;;;;;;4157450;28;20040;-73
2021/03/07 07:07:19;;;;;;;19.10;9.70;;;2.00;99.90;;;;;;4158469;28;20728;-73
2021/03/07 07:09:24;;;;;;;15.30;8.70;;;2.00;99.90;;;;;;4153694;28;20045;-73
2021/03/07 07:11:25;;;;;;;14.68;9.18;;;1.90;99.90;;;;;;4153807;28;20086;-73
2021/03/07 07:13:30;;;;;;;14.13;8.85;;;1.90;99.90;;;;;;4156125;28;20425;-73
2021/03/07 07:15:31;;;;;;;15.68;8.75;;;1.90;99.90;;;;;;4159213;28;20032;-73
2021/03/07 07:17:31;;;;;;;14.05;8.32;;;1.90;99.90;;;;;;4158367;28;20065;-73
2021/03/07 07:19:32;;;;;;;12.15;7.53;;;2.00;99.90;;;;;;4154873;28;20572;-73
2021/03/07 07:21:33;;;;;;;14.27;7.82;;;2.00;99.90;;;;;;4157176;28;20112;-73
2021/03/07 07:23:34;;;;;;;14.10;7.57;;;2.00;99.90;;;;;;4157957;28;20022;-73
2021/03/07 07:25:35;;;;;;;11.20;7.07;;;2.00;99.90;;;;;;4156316;28;20024;-73
2021/03/07 07:27:36;;;;;;;16.23;8.10;;;2.00;99.90;;;;;;4155287;28;20120;-73
2021/03/07 07:29:37;;;;;;;11.32;7.38;;;2.10;99.90;;;;;;4156354;28;20259;-73
2021/03/07 07:31:45;;;;;;;13.10;8.43;;;2.10;99.90;;;;;;4157805;28;20393;-75
2021/03/07 07:34:12;;;;;;;14.60;9.00;;;2.10;99.90;;;;;;4147603;28;20041;-75
2021/03/07 07:36:31;;;;;;;14.70;8.80;;;2.20;99.90;;;;;;4147566;28;20045;-75
2021/03/07 07:38:33;;;;;;;13.32;8.25;;;2.20;99.90;;;;;;4153961;28;20497;-75
2021/03/07 07:40:43;;;;;;;13.63;8.75;;;2.30;99.90;;;;;;4157498;28;20056;-75
2021/03/07 07:42:56;;;;;;;13.02;8.38;;;2.30;99.90;;;;;;4154950;28;20071;-75
2021/03/07 07:44:59;;;;;;;12.43;8.18;;;2.40;99.90;;;;;;4156352;28;20092;-75
2021/03/07 07:47:03;;;;;;;13.00;8.05;;;2.40;99.90;;;;;;4156239;28;20048;-75
2021/03/07 07:49:04;;;;;;;15.85;8.70;;;2.50;99.90;;;;;;4153137;28;20040;-75
2021/03/07 07:51:29;;;;;;;15.38;9.07;;;2.50;99.90;;;;;;4153400;28;20421;-75
2021/03/07 07:53:33;;;;;;;15.60;8.45;;;2.60;99.90;;;;;;4179512;28;20118;-77
2021/03/07 07:55:43;;;;;;;14.57;8.90;;;2.70;99.90;;;;;;4152966;28;20042;-77
2021/03/07 07:57:47;;;;;;;15.98;8.45;;;2.80;99.90;;;;;;4151745;28;20029;-77
2021/03/07 07:59:51;;;;;;;14.55;8.93;;;2.80;99.90;;;;;;4156574;28;20493;-77
2021/03/07 08:01:54;;;;;;;14.10;8.80;;;2.90;99.90;;;;;;4153474;28;20131;-74
2021/03/07 08:03:55;;;;;;;12.02;7.88;;;3.00;99.90;;;;;;4157615;28;20040;-74
2021/03/07 08:05:56;;;;;;;11.48;7.68;;;3.10;99.90;;;;;;4157844;28;20048;-74
2021/03/07 08:08:10;;;;;;;12.52;8.52;;;3.20;99.90;;;;;;4154895;28;20072;-74
2021/03/07 08:10:39;;;;;;;14.38;8.13;;;3.40;99.90;;;;;;4152469;28;20041;-74
2021/03/07 08:12:43;;;;;;;13.70;8.25;;;3.50;99.90;;;;;;4153583;28;20088;-74
2021/03/07 08:14:43;;;;;;;10.40;7.50;;;3.70;99.90;;;;;;4153013;28;20121;-74
2021/03/07 08:16:48;;;;;;;11.93;8.20;;;3.80;99.90;;;;;;4157507;28;20033;-71
2021/03/07 08:18:52;;;;;;;12.85;8.68;;;4.10;99.90;;;;;;4153272;28;20163;-73
2021/03/07 08:20:53;;;;;;;11.30;7.35;;;4.40;99.90;;;;;;4150918;28;20095;-74
2021/03/07 08:22:59;;;;;;;11.73;7.80;;;4.60;99.90;;;;;;4154645;28;20037;-74
2021/03/07 08:25:00;;;;;;;13.05;8.15;;;4.90;99.90;;;;;;4151817;28;20042;-74
2021/03/07 08:27:01;;;;;;;12.73;8.18;;;5.10;99.90;;;;;;4152453;28;20496;-74
2021/03/07 08:29:02;;;;;;;11.15;7.75;;;5.40;99.90;;;;;;4156600;28;20041;-72
2021/03/07 08:31:07;;;;;;;10.00;7.38;;;5.70;99.90;;;;;;4155017;28;20468;-71
2021/03/07 08:33:22;;;;;;;10.68;7.32;;;6.10;99.90;;;;;;4155807;28;20413;-71
2021/03/07 08:35:24;;;;;;;10.68;7.32;;;6.40;99.90;;;;;;4154305;28;20425;-71
2021/03/07 08:37:26;;;;;;;13.85;7.97;;;6.60;99.90;;;;;;4156410;28;20053;-71
2021/03/07 08:39:27;;;;;;;12.02;7.65;;;6.80;99.90;;;;;;4158252;28;20057;-72
2021/03/07 08:41:32;;;;;;;11.77;7.20;;;6.90;99.90;;;;;;4138195;28;20066;-72
2021/03/07 08:43:33;;;;;;;11.77;7.40;;;7.00;99.90;;;;;;4156375;28;20268;-72
2021/03/07 08:45:33;;;;;;;10.85;7.60;;;7.20;99.90;;;;;;4155390;28;20086;-72
2021/03/07 08:47:59;;;;;;;10.05;6.43;;;7.30;99.90;;;;;;4132619;28;20076;-72
2021/03/07 08:50:05;;;;;;;9.98;7.03;;;7.20;99.90;;;;;;4135597;28;20038;-72
2021/03/07 08:52:07;;;;;;;8.77;6.03;;;7.20;99.90;;;;;;4155082;28;20588;-72
2021/03/07 08:54:22;;;;;;;9.88;6.53;;;7.20;99.90;;;;;;4156188;28;20113;-72
2021/03/07 08:56:24;;;;;;;11.95;6.65;;;7.10;99.90;;;;;;4148551;28;20080;-72
2021/03/07 08:58:25;;;;;;;10.38;6.68;;;7.00;99.90;;;;;;4150529;28;20164;-72
2021/03/07 09:00:26;;;;;;;9.43;6.13;;;7.00;99.90;;;;;;4151170;28;20041;-72
2021/03/07 09:02:32;;;;;;;10.98;6.50;;;7.00;99.90;;;;;;4149389;28;20076;-72
2021/03/07 09:04:35;;;;;;;8.32;5.80;;;7.10;99.90;;;;;;4150121;28;20148;-72
2021/03/07 09:06:41;;;;;;;10.60;6.10;;;7.10;99.90;;;;;;4149322;28;20040;-72
2021/03/07 09:08:42;;;;;;;10.20;5.85;;;7.00;99.90;;;;;;4153572;28;21183;-72
2021/03/07 09:10:45;;;;;;;10.60;5.75;;;7.20;99.90;;;;;;4155037;28;20034;-72
2021/03/07 09:12:46;;;;;;;8.05;5.70;;;7.30;99.90;;;;;;4155794;28;20045;-72
2021/03/07 09:14:47;;;;;;;10.52;6.35;;;7.40;99.90;;;;;;4157645;28;20547;-72
2021/03/07 09:16:48;;;;;;;8.93;6.28;;;7.50;99.90;;;;;;4157083;28;20436;-72
2021/03/07 09:18:49;;;;;;;13.85;6.25;;;7.70;99.90;;;;;;4155169;28;20033;-71
2021/03/07 09:20:55;;;;;;;7.40;5.68;;;7.80;99.90;;;;;;4155581;28;20370;-71
2021/03/07 09:22:56;;;;;;;7.88;5.47;;;7.90;99.90;;;;;;4154371;28;20095;-72
2021/03/07 09:25:12;;;;;;;10.23;6.40;;;7.90;99.90;;;;;;4157784;28;20478;-72
2021/03/07 09:27:13;;;;;;;9.32;5.13;;;7.90;99.90;;;;;;4153838;28;20029;-71
2021/03/07 09:29:13;;;;;;;7.88;4.75;;;7.70;99.90;;;;;;4158651;28;20045;-72
2021/03/07 09:31:17;;;;;;;8.52;5.07;;;7.80;99.90;;;;;;4160177;28;20386;-71
2021/03/07 09:33:18;;;;;;;6.93;4.10;;;7.80;99.90;;;;;;4159012;28;20026;-71
2021/03/07 09:35:34;;;;;;;5.32;3.10;;;7.80;99.90;;;;;;4160610;28;20118;-71
2021/03/07 09:37:35;;;;;;;5.53;3.00;;;7.80;99.90;;;;;;4157373;28;20030;-71
2021/03/07 09:39:36;;;;;;;3.60;2.83;;;7.80;99.90;;;;;;4158721;28;20465;-74
2021/03/07 09:41:44;;;;;;;4.45;2.70;;;7.60;99.90;;;;;;4154597;28;20041;-73
2021/03/07 09:43:48;;;;;;;3.60;2.33;;;7.80;99.90;;;;;;4153612;28;20083;-73
2021/03/07 09:45:50;;;;;;;3.80;2.05;;;7.90;99.90;;;;;;4160322;28;20048;-73
2021/03/07 09:47:54;;;;;;;2.50;1.85;;;7.70;99.90;;;;;;4160125;28;20041;-73
2021/03/07 09:49:55;;;;;;;4.43;2.40;;;7.80;99.90;;;;;;4155938;28;20042;-73
2021/03/07 09:51:56;;;;;;;5.47;2.25;;;8.00;99.90;;;;;;4159545;28;20129;-73
2021/03/07 09:53:58;;;;;;;4.40;2.17;;;8.00;99.90;;;;;;4159852;28;20037;-73
2021/03/07 09:55:59;;;;;;;6.57;2.67;;;8.10;99.90;;;;;;4158788;28;20088;-73
2021/03/07 09:58:04;;;;;;;3.22;1.90;;;8.00;99.90;;;;;;4160603;28;20505;-73
2021/03/07 10:00:06;;;;;;;5.68;2.20;;;8.10;99.90;;;;;;4153286;28;20417;-73
2021/03/07 10:02:07;;;;;;;3.92;2.38;;;8.10;99.90;;;;;;4157905;28;20430;-73
2021/03/07 10:04:29;;;;;;;3.88;2.30;;;8.20;99.90;;;;;;4153559;28;20050;-73
2021/03/07 10:06:31;;;;;;;5.95;3.00;;;8.30;99.90;;;;;;4155764;28;20129;-73
2021/03/07 10:08:34;;;;;;;4.75;2.78;;;8.40;99.90;;;;;;4158261;28;20038;-73
2021/03/07 10:10:34;;;;;;;4.35;2.50;;;8.40;99.90;;;;;;4157033;28;20575;-73
2021/03/07 10:12:55;;;;;;;4.68;2.53;;;8.40;99.90;;;;;;4158462;28;20323;-74
2021/03/07 10:14:58;;;;;;;;;;;8.50;99.90;;;;;;4157549;28;20041;-70
2021/03/07 10:17:00;;;;;;;3.40;2.75;;;8.30;99.90;;;;;;4159823;28;20312;-70
2021/03/07 10:19:12;;;;;;;3.45;2.60;;;8.30;99.90;;;;;;4156613;28;20510;-70
2021/03/07 10:21:13;;;;;;;6.97;2.90;;;8.30;99.90;;;;;;4156618;28;20045;-71
2021/03/07 10:23:14;;;;;;;4.25;2.72;;;8.30;99.90;;;;;;4160076;28;20029;-71
2021/03/07 10:25:39;;;;;;;6.55;3.20;;;8.30;99.90;;;;;;4157736;28;20613;-70
2021/03/07 10:27:39;;;;;;;3.40;2.40;;;8.00;99.90;;;;;;4150251;28;20133;-71
2021/03/07 10:29:40;;;;;;;6.43;2.70;;;8.00;99.90;;;;;;4155289;28;20036;-71
2021/03/07 10:32:18;;;;;;;3.13;2.38;;;7.80;99.90;;;;;;4159336;28;20353;-71
2021/03/07 10:34:50;;;;;;;4.57;2.53;;;7.90;99.90;;;;;;4158416;28;20029;-70
2021/03/07 10:36:50;;;;;;;4.47;2.80;;;7.70;99.90;;;;;;4159418;28;20076;-71
2021/03/07 10:39:09;;;;;;;4.97;2.60;;;7.70;99.90;;;;;;4155383;28;20037;-71
2021/03/07 10:41:24;;;;;;;4.57;3.17;;;7.60;99.90;;;;;;4158583;28;20152;-70
2021/03/07 10:43:25;;;;;;;3.85;2.72;;;7.70;99.90;;;;;;4157839;28;20037;-70
2021/03/07 10:45:26;;;;;;;4.60;2.65;;;7.70;99.90;;;;;;4154853;28;20096;-70
2021/03/07 10:47:27;;;;;;;4.03;2.75;;;7.60;99.90;;;;;;4157628;28;20045;-70